sensor_id;sensor_type;location;lat;lon;timestamp;temperature;humidity
40291;DHT22;26000;48.304;13.626;2022-12-07T00:01:23;5.40;99.90
40291;DHT22;26000;48.304;13.626;2022-12-07T00:03:52;5.40;99.90
40291;DHT22;26000;48.304;13.626;2022-12-07T00:06:18;5.30;99.90
40291;DHT22;26000;48.304;13.626;2022-12-07T00:08:44;5.40;99.90
40291;DHT22;26000;48.304;13.626;2022-12-07T00:11:14;5.50;99.90
40291;DHT22;26000;48.304;13.626;2022-12-07T00:13:41;5.40;99.90
40291;DHT22;26000;48.304;13.626;2022-12-07T00:16:18;5.50;99.90
40291;DHT22;26000;48.304;13.626;2022-12-07T00:18:44;5.60;99.90
40291;DHT22;26000;48.304;13.626;2022-12-07T00:21:18;5.50;99.90
40291;DHT22;26000;48.304;13.626;2022-12-07T00:23:45;5.40;99.90
40291;DHT22;26000;48.304;13.626;2022-12-07T00:28:40;5.40;99.90
40291;DHT22;26000;48.304;13.626;2022-12-07T00:31:08;5.30;99.90
40291;DHT22;26000;48.304;13.626;2022-12-07T00:33:35;5.40;99.90
40291;DHT22;26000;48.304;13.626;2022-12-07T00:36:02;5.40;99.90
40291;DHT22;26000;48.304;13.626;2022-12-07T00:38:32;5.40;99.90
40291;DHT22;26000;48.304;13.626;2022-12-07T00:41:12;5.40;99.90
40291;DHT22;26000;48.304;13.626;2022-12-07T00:43:39;5.40;99.90
40291;DHT22;26000;48.304;13.626;2022-12-07T00:46:05;5.40;99.90
40291;DHT22;26000;48.304;13.626;2022-12-07T00:48:31;5.40;99.90
40291;DHT22;26000;48.304;13.626;2022-12-07T00:50:57;5.50;99.90
40291;DHT22;26000;48.304;13.626;2022-12-07T00:53:22;5.40;99.90
40291;DHT22;26000;48.304;13.626;2022-12-07T00:55:48;5.40;99.90
40291;DHT22;26000;48.304;13.626;2022-12-07T00:58:14;5.30;99.90
40291;DHT22;26000;48.304;13.626;2022-12-07T01:00:41;5.40;99.90
40291;DHT22;26000;48.304;13.626;2022-12-07T01:03:09;5.40;99.90
40291;DHT22;26000;48.304;13.626;2022-12-07T01:05:35;5.30;99.90
40291;DHT22;26000;48.304;13.626;2022-12-07T01:08:02;5.40;99.90
40291;DHT22;26000;48.304;13.626;2022-12-07T01:10:28;5.40;99.90
40291;DHT22;26000;48.304;13.626;2022-12-07T01:12:55;5.40;99.90
40291;DHT22;26000;48.304;13.626;2022-12-07T01:15:21;5.40;99.90
40291;DHT22;26000;48.304;13.626;2022-12-07T01:17:47;5.40;99.90
40291;DHT22;26000;48.304;13.626;2022-12-07T01:20:13;5.30;99.90
40291;DHT22;26000;48.304;13.626;2022-12-07T01:22:42;5.30;99.90
40291;DHT22;26000;48.304;13.626;2022-12-07T01:25:09;5.30;99.90
40291;DHT22;26000;48.304;13.626;2022-12-07T01:27:36;5.40;99.90
40291;DHT22;26000;48.304;13.626;2022-12-07T01:30:04;5.40;99.90
40291;DHT22;26000;48.304;13.626;2022-12-07T01:32:30;5.40;99.90
40291;DHT22;26000;48.304;13.626;2022-12-07T01:34:56;5.40;99.90
40291;DHT22;26000;48.304;13.626;2022-12-07T01:37:21;5.40;99.90
40291;DHT22;26000;48.304;13.626;2022-12-07T01:39:51;5.30;99.90
40291;DHT22;26000;48.304;13.626;2022-12-07T01:42:16;5.30;99.90
40291;DHT22;26000;48.304;13.626;2022-12-07T01:47:54;5.30;99.90
40291;DHT22;26000;48.304;13.626;2022-12-07T01:50:21;5.40;99.90
40291;DHT22;26000;48.304;13.626;2022-12-07T01:52:50;5.30;99.90
40291;DHT22;26000;48.304;13.626;2022-12-07T01:55:18;5.30;99.90
40291;DHT22;26000;48.304;13.626;2022-12-07T01:57:50;5.30;99.90
40291;DHT22;26000;48.304;13.626;2022-12-07T02:00:17;5.30;99.90
40291;DHT22;26000;48.304;13.626;2022-12-07T02:02:51;5.30;99.90
40291;DHT22;26000;48.304;13.626;2022-12-07T02:05:19;5.30;99.90
40291;DHT22;26000;48.304;13.626;2022-12-07T02:07:47;5.30;99.90
40291;DHT22;26000;48.304;13.626;2022-12-07T02:10:21;5.30;99.90
40291;DHT22;26000;48.304;13.626;2022-12-07T02:12:54;5.30;99.90
40291;DHT22;26000;48.304;13.626;2022-12-07T02:15:22;5.20;99.90
40291;DHT22;26000;48.304;13.626;2022-12-07T02:18:08;5.20;99.90
40291;DHT22;26000;48.304;13.626;2022-12-07T02:20:59;5.20;99.90
40291;DHT22;26000;48.304;13.626;2022-12-07T02:23:46;5.30;99.90
40291;DHT22;26000;48.304;13.626;2022-12-07T02:34:31;5.30;99.90
40291;DHT22;26000;48.304;13.626;2022-12-07T02:37:02;5.30;99.90
40291;DHT22;26000;48.304;13.626;2022-12-07T02:39:37;5.30;99.90
40291;DHT22;26000;48.304;13.626;2022-12-07T02:42:32;5.30;99.90
40291;DHT22;26000;48.304;13.626;2022-12-07T02:45:00;5.20;99.90
40291;DHT22;26000;48.304;13.626;2022-12-07T02:47:28;5.30;99.90
40291;DHT22;26000;48.304;13.626;2022-12-07T02:49:54;5.30;99.90
40291;DHT22;26000;48.304;13.626;2022-12-07T02:52:20;5.30;99.90
40291;DHT22;26000;48.304;13.626;2022-12-07T02:54:46;5.20;99.90
40291;DHT22;26000;48.304;13.626;2022-12-07T02:57:40;5.30;99.90
40291;DHT22;26000;48.304;13.626;2022-12-07T03:00:09;5.20;99.90
40291;DHT22;26000;48.304;13.626;2022-12-07T03:02:50;5.10;99.90
40291;DHT22;26000;48.304;13.626;2022-12-07T03:12:06;5.00;99.90
40291;DHT22;26000;48.304;13.626;2022-12-07T03:16:52;5.00;99.90
40291;DHT22;26000;48.304;13.626;2022-12-07T03:19:22;5.10;99.90
40291;DHT22;26000;48.304;13.626;2022-12-07T03:22:08;5.10;99.90
40291;DHT22;26000;48.304;13.626;2022-12-07T03:24:49;5.10;99.90
40291;DHT22;26000;48.304;13.626;2022-12-07T03:27:28;5.00;99.90
40291;DHT22;26000;48.304;13.626;2022-12-07T03:32:38;5.00;99.90
40291;DHT22;26000;48.304;13.626;2022-12-07T03:35:29;5.00;99.90
40291;DHT22;26000;48.304;13.626;2022-12-07T03:40:40;5.10;99.90
40291;DHT22;26000;48.304;13.626;2022-12-07T03:43:10;5.10;99.90
40291;DHT22;26000;48.304;13.626;2022-12-07T03:45:45;5.00;99.90
40291;DHT22;26000;48.304;13.626;2022-12-07T03:48:28;5.00;99.90
40291;DHT22;26000;48.304;13.626;2022-12-07T03:51:08;5.10;99.90
40291;DHT22;26000;48.304;13.626;2022-12-07T03:53:46;5.00;99.90
40291;DHT22;26000;48.304;13.626;2022-12-07T03:56:13;5.00;99.90
40291;DHT22;26000;48.304;13.626;2022-12-07T03:58:40;4.90;99.90
40291;DHT22;26000;48.304;13.626;2022-12-07T04:01:06;5.00;99.90
40291;DHT22;26000;48.304;13.626;2022-12-07T04:03:31;5.00;99.90
40291;DHT22;26000;48.304;13.626;2022-12-07T04:05:57;4.90;99.90
40291;DHT22;26000;48.304;13.626;2022-12-07T04:08:24;5.00;99.90
40291;DHT22;26000;48.304;13.626;2022-12-07T04:10:50;5.00;99.90
40291;DHT22;26000;48.304;13.626;2022-12-07T04:13:16;4.90;99.90
40291;DHT22;26000;48.304;13.626;2022-12-07T04:15:41;4.90;99.90
40291;DHT22;26000;48.304;13.626;2022-12-07T04:18:07;4.90;99.90
40291;DHT22;26000;48.304;13.626;2022-12-07T04:20:33;4.90;99.90
40291;DHT22;26000;48.304;13.626;2022-12-07T04:22:58;4.90;99.90
40291;DHT22;26000;48.304;13.626;2022-12-07T04:25:24;4.90;99.90
40291;DHT22;26000;48.304;13.626;2022-12-07T04:27:49;5.00;99.90
40291;DHT22;26000;48.304;13.626;2022-12-07T04:30:15;5.00;99.90
40291;DHT22;26000;48.304;13.626;2022-12-07T04:32:41;5.00;99.90
40291;DHT22;26000;48.304;13.626;2022-12-07T04:35:07;5.00;99.90
40291;DHT22;26000;48.304;13.626;2022-12-07T04:37:32;5.00;99.90
40291;DHT22;26000;48.304;13.626;2022-12-07T04:39:58;5.00;99.90
40291;DHT22;26000;48.304;13.626;2022-12-07T04:42:23;5.00;99.90
40291;DHT22;26000;48.304;13.626;2022-12-07T04:44:49;5.00;99.90
40291;DHT22;26000;48.304;13.626;2022-12-07T04:47:16;5.00;99.90
40291;DHT22;26000;48.304;13.626;2022-12-07T04:49:41;4.90;99.90
40291;DHT22;26000;48.304;13.626;2022-12-07T04:52:07;4.90;99.90
40291;DHT22;26000;48.304;13.626;2022-12-07T04:54:33;4.90;99.90
40291;DHT22;26000;48.304;13.626;2022-12-07T04:56:59;4.90;99.90
40291;DHT22;26000;48.304;13.626;2022-12-07T04:59:24;4.90;99.90
40291;DHT22;26000;48.304;13.626;2022-12-07T05:01:50;4.90;99.90
40291;DHT22;26000;48.304;13.626;2022-12-07T05:04:16;4.90;99.90
40291;DHT22;26000;48.304;13.626;2022-12-07T05:06:43;4.90;99.90
40291;DHT22;26000;48.304;13.626;2022-12-07T05:09:08;4.90;99.90
40291;DHT22;26000;48.304;13.626;2022-12-07T05:11:34;4.90;99.90
40291;DHT22;26000;48.304;13.626;2022-12-07T05:14:12;4.90;99.90
40291;DHT22;26000;48.304;13.626;2022-12-07T05:16:39;4.90;99.90
40291;DHT22;26000;48.304;13.626;2022-12-07T05:19:05;4.90;99.90
40291;DHT22;26000;48.304;13.626;2022-12-07T05:21:30;6.40;99.90
40291;DHT22;26000;48.304;13.626;2022-12-07T05:23:56;6.80;99.90
40291;DHT22;26000;48.304;13.626;2022-12-07T05:26:22;6.40;99.90
40291;DHT22;26000;48.304;13.626;2022-12-07T05:28:55;6.10;99.90
40291;DHT22;26000;48.304;13.626;2022-12-07T05:31:20;5.90;99.90
40291;DHT22;26000;48.304;13.626;2022-12-07T05:33:47;5.70;99.90
40291;DHT22;26000;48.304;13.626;2022-12-07T05:36:12;5.60;99.90
40291;DHT22;26000;48.304;13.626;2022-12-07T05:38:38;5.50;99.90
40291;DHT22;26000;48.304;13.626;2022-12-07T05:41:05;5.30;99.90
40291;DHT22;26000;48.304;13.626;2022-12-07T05:43:33;5.20;99.90
40291;DHT22;26000;48.304;13.626;2022-12-07T05:45:59;5.10;99.90
40291;DHT22;26000;48.304;13.626;2022-12-07T05:48:25;5.10;99.90
40291;DHT22;26000;48.304;13.626;2022-12-07T05:50:51;5.00;99.90
40291;DHT22;26000;48.304;13.626;2022-12-07T05:53:17;5.00;99.90
40291;DHT22;26000;48.304;13.626;2022-12-07T05:55:44;5.00;99.90
40291;DHT22;26000;48.304;13.626;2022-12-07T05:58:10;4.90;99.90
40291;DHT22;26000;48.304;13.626;2022-12-07T06:00:55;4.90;99.90
40291;DHT22;26000;48.304;13.626;2022-12-07T06:03:21;4.90;99.90
40291;DHT22;26000;48.304;13.626;2022-12-07T06:05:47;4.90;99.90
40291;DHT22;26000;48.304;13.626;2022-12-07T06:08:13;4.90;99.90
40291;DHT22;26000;48.304;13.626;2022-12-07T06:10:40;4.90;99.90
40291;DHT22;26000;48.304;13.626;2022-12-07T06:13:05;4.80;99.90
40291;DHT22;26000;48.304;13.626;2022-12-07T06:15:31;4.90;99.90
40291;DHT22;26000;48.304;13.626;2022-12-07T06:17:56;4.90;99.90
40291;DHT22;26000;48.304;13.626;2022-12-07T06:20:22;4.80;99.90
40291;DHT22;26000;48.304;13.626;2022-12-07T06:22:48;4.90;99.90
40291;DHT22;26000;48.304;13.626;2022-12-07T06:25:13;4.80;99.90
40291;DHT22;26000;48.304;13.626;2022-12-07T06:27:39;4.80;99.90
40291;DHT22;26000;48.304;13.626;2022-12-07T06:30:05;4.90;99.90
40291;DHT22;26000;48.304;13.626;2022-12-07T06:32:33;4.80;99.90
40291;DHT22;26000;48.304;13.626;2022-12-07T06:34:59;4.80;99.90
40291;DHT22;26000;48.304;13.626;2022-12-07T06:37:25;4.80;99.90
40291;DHT22;26000;48.304;13.626;2022-12-07T06:39:50;4.80;99.90
40291;DHT22;26000;48.304;13.626;2022-12-07T06:42:16;4.80;99.90
40291;DHT22;26000;48.304;13.626;2022-12-07T06:44:42;4.80;99.90
40291;DHT22;26000;48.304;13.626;2022-12-07T06:47:07;4.80;99.90
40291;DHT22;26000;48.304;13.626;2022-12-07T06:49:34;4.70;99.90
40291;DHT22;26000;48.304;13.626;2022-12-07T06:52:00;4.70;99.90
40291;DHT22;26000;48.304;13.626;2022-12-07T06:54:26;4.70;99.90
40291;DHT22;26000;48.304;13.626;2022-12-07T06:56:51;4.80;99.90
40291;DHT22;26000;48.304;13.626;2022-12-07T06:59:17;4.80;99.90
40291;DHT22;26000;48.304;13.626;2022-12-07T07:01:43;4.80;99.90
40291;DHT22;26000;48.304;13.626;2022-12-07T07:04:08;4.80;99.90
40291;DHT22;26000;48.304;13.626;2022-12-07T07:06:34;4.80;99.90
40291;DHT22;26000;48.304;13.626;2022-12-07T07:09:00;4.80;99.90
40291;DHT22;26000;48.304;13.626;2022-12-07T07:11:25;4.90;99.90
40291;DHT22;26000;48.304;13.626;2022-12-07T07:13:51;4.80;99.90
40291;DHT22;26000;48.304;13.626;2022-12-07T07:16:16;4.80;99.90
40291;DHT22;26000;48.304;13.626;2022-12-07T07:18:42;4.90;99.90
40291;DHT22;26000;48.304;13.626;2022-12-07T07:21:08;4.90;99.90
40291;DHT22;26000;48.304;13.626;2022-12-07T07:23:33;4.80;99.90
40291;DHT22;26000;48.304;13.626;2022-12-07T07:25:59;4.90;99.90
40291;DHT22;26000;48.304;13.626;2022-12-07T07:28:25;4.90;99.90
40291;DHT22;26000;48.304;13.626;2022-12-07T07:30:50;4.90;99.90
40291;DHT22;26000;48.304;13.626;2022-12-07T07:33:16;4.90;99.90
40291;DHT22;26000;48.304;13.626;2022-12-07T07:35:42;4.90;99.90
40291;DHT22;26000;48.304;13.626;2022-12-07T07:38:08;4.90;99.90
40291;DHT22;26000;48.304;13.626;2022-12-07T07:40:34;4.80;99.90
40291;DHT22;26000;48.304;13.626;2022-12-07T07:43:00;4.90;99.90
40291;DHT22;26000;48.304;13.626;2022-12-07T07:45:27;4.90;99.90
40291;DHT22;26000;48.304;13.626;2022-12-07T07:47:53;5.00;99.90
40291;DHT22;26000;48.304;13.626;2022-12-07T07:50:19;5.00;99.90
40291;DHT22;26000;48.304;13.626;2022-12-07T07:52:45;5.00;99.90
40291;DHT22;26000;48.304;13.626;2022-12-07T07:55:11;5.00;99.90
40291;DHT22;26000;48.304;13.626;2022-12-07T07:57:38;5.00;99.90
40291;DHT22;26000;48.304;13.626;2022-12-07T08:00:09;5.10;99.90
40291;DHT22;26000;48.304;13.626;2022-12-07T08:02:35;5.10;99.90
40291;DHT22;26000;48.304;13.626;2022-12-07T08:05:00;5.20;99.90
40291;DHT22;26000;48.304;13.626;2022-12-07T08:07:27;5.10;99.90
40291;DHT22;26000;48.304;13.626;2022-12-07T08:09:53;5.10;99.90
40291;DHT22;26000;48.304;13.626;2022-12-07T08:12:19;5.10;99.90
40291;DHT22;26000;48.304;13.626;2022-12-07T08:14:44;5.20;99.90
40291;DHT22;26000;48.304;13.626;2022-12-07T08:17:10;5.40;99.90
40291;DHT22;26000;48.304;13.626;2022-12-07T08:19:36;5.50;99.90
40291;DHT22;26000;48.304;13.626;2022-12-07T08:22:02;5.50;99.90
40291;DHT22;26000;48.304;13.626;2022-12-07T08:24:27;5.50;99.90
40291;DHT22;26000;48.304;13.626;2022-12-07T08:26:53;5.40;99.90
40291;DHT22;26000;48.304;13.626;2022-12-07T08:29:19;5.40;99.90
40291;DHT22;26000;48.304;13.626;2022-12-07T08:31:44;5.50;99.90
40291;DHT22;26000;48.304;13.626;2022-12-07T08:34:35;5.40;99.90
40291;DHT22;26000;48.304;13.626;2022-12-07T08:37:02;5.40;99.90
40291;DHT22;26000;48.304;13.626;2022-12-07T08:39:27;5.50;99.90
40291;DHT22;26000;48.304;13.626;2022-12-07T08:41:53;5.50;99.90
40291;DHT22;26000;48.304;13.626;2022-12-07T08:44:20;5.60;99.90
40291;DHT22;26000;48.304;13.626;2022-12-07T08:46:50;5.70;99.90
40291;DHT22;26000;48.304;13.626;2022-12-07T08:49:24;5.70;99.90
40291;DHT22;26000;48.304;13.626;2022-12-07T08:51:51;5.70;99.90
40291;DHT22;26000;48.304;13.626;2022-12-07T08:54:18;5.70;99.90
40291;DHT22;26000;48.304;13.626;2022-12-07T08:56:45;5.70;99.90
40291;DHT22;26000;48.304;13.626;2022-12-07T08:59:15;5.70;99.90
40291;DHT22;26000;48.304;13.626;2022-12-07T09:01:41;5.80;99.90
40291;DHT22;26000;48.304;13.626;2022-12-07T09:04:06;5.80;99.90
40291;DHT22;26000;48.304;13.626;2022-12-07T09:06:33;5.90;99.90
40291;DHT22;26000;48.304;13.626;2022-12-07T09:09:00;5.80;99.90
40291;DHT22;26000;48.304;13.626;2022-12-07T09:11:26;5.80;99.90
40291;DHT22;26000;48.304;13.626;2022-12-07T09:13:52;5.90;99.90
40291;DHT22;26000;48.304;13.626;2022-12-07T09:16:17;5.90;99.90
40291;DHT22;26000;48.304;13.626;2022-12-07T09:18:43;5.90;99.90
40291;DHT22;26000;48.304;13.626;2022-12-07T09:21:09;6.00;99.90
40291;DHT22;26000;48.304;13.626;2022-12-07T09:23:35;6.00;99.90
40291;DHT22;26000;48.304;13.626;2022-12-07T09:26:01;6.30;99.90
40291;DHT22;26000;48.304;13.626;2022-12-07T09:28:27;6.40;99.90
40291;DHT22;26000;48.304;13.626;2022-12-07T09:30:52;6.60;99.90
40291;DHT22;26000;48.304;13.626;2022-12-07T09:33:18;6.60;99.90
40291;DHT22;26000;48.304;13.626;2022-12-07T09:35:45;6.50;99.90
40291;DHT22;26000;48.304;13.626;2022-12-07T09:38:11;6.40;99.90
40291;DHT22;26000;48.304;13.626;2022-12-07T09:40:36;6.30;99.90
40291;DHT22;26000;48.304;13.626;2022-12-07T09:43:02;6.20;99.90
40291;DHT22;26000;48.304;13.626;2022-12-07T09:45:34;6.30;99.90
40291;DHT22;26000;48.304;13.626;2022-12-07T09:48:02;6.20;99.90
40291;DHT22;26000;48.304;13.626;2022-12-07T09:50:29;6.30;99.90
40291;DHT22;26000;48.304;13.626;2022-12-07T09:53:07;6.60;99.90
40291;DHT22;26000;48.304;13.626;2022-12-07T09:55:33;6.80;99.90
40291;DHT22;26000;48.304;13.626;2022-12-07T09:58:01;6.90;99.90
40291;DHT22;26000;48.304;13.626;2022-12-07T10:00:27;7.10;99.90
40291;DHT22;26000;48.304;13.626;2022-12-07T10:03:02;7.10;99.90
40291;DHT22;26000;48.304;13.626;2022-12-07T10:05:38;7.10;99.90
40291;DHT22;26000;48.304;13.626;2022-12-07T10:08:07;7.20;99.90
40291;DHT22;26000;48.304;13.626;2022-12-07T10:10:34;7.20;99.90
40291;DHT22;26000;48.304;13.626;2022-12-07T10:13:09;7.20;99.90
40291;DHT22;26000;48.304;13.626;2022-12-07T10:18:20;7.50;99.90
40291;DHT22;26000;48.304;13.626;2022-12-07T10:20:47;7.70;99.90
40291;DHT22;26000;48.304;13.626;2022-12-07T10:23:17;7.70;99.90
40291;DHT22;26000;48.304;13.626;2022-12-07T10:25:44;7.80;99.90
40291;DHT22;26000;48.304;13.626;2022-12-07T10:28:15;7.80;99.90
40291;DHT22;26000;48.304;13.626;2022-12-07T10:30:55;7.90;99.90
40291;DHT22;26000;48.304;13.626;2022-12-07T10:33:35;7.90;99.90
40291;DHT22;26000;48.304;13.626;2022-12-07T10:38:52;7.70;99.90
40291;DHT22;26000;48.304;13.626;2022-12-07T10:41:18;7.70;99.90
40291;DHT22;26000;48.304;13.626;2022-12-07T10:43:53;7.50;99.90
40291;DHT22;26000;48.304;13.626;2022-12-07T10:49:49;7.10;99.90
40291;DHT22;26000;48.304;13.626;2022-12-07T10:52:37;6.90;99.90
40291;DHT22;26000;48.304;13.626;2022-12-07T10:55:33;6.80;99.90
40291;DHT22;26000;48.304;13.626;2022-12-07T11:03:39;6.50;99.90
40291;DHT22;26000;48.304;13.626;2022-12-07T11:06:30;6.50;99.90
40291;DHT22;26000;48.304;13.626;2022-12-07T11:11:53;6.50;99.90
40291;DHT22;26000;48.304;13.626;2022-12-07T11:14:44;6.40;99.90
40291;DHT22;26000;48.304;13.626;2022-12-07T11:22:47;6.60;99.90
40291;DHT22;26000;48.304;13.626;2022-12-07T11:25:35;6.60;99.90
40291;DHT22;26000;48.304;13.626;2022-12-07T11:28:18;6.60;99.90
40291;DHT22;26000;48.304;13.626;2022-12-07T11:31:12;6.50;99.90
40291;DHT22;26000;48.304;13.626;2022-12-07T11:33:46;6.50;99.90
40291;DHT22;26000;48.304;13.626;2022-12-07T11:36:35;6.60;99.90
40291;DHT22;26000;48.304;13.626;2022-12-07T11:41:56;6.70;99.90
40291;DHT22;26000;48.304;13.626;2022-12-07T11:44:46;6.60;99.90
40291;DHT22;26000;48.304;13.626;2022-12-07T11:52:27;6.70;99.90
40291;DHT22;26000;48.304;13.626;2022-12-07T11:54:55;6.60;99.90
40291;DHT22;26000;48.304;13.626;2022-12-07T11:57:33;6.60;99.90
40291;DHT22;26000;48.304;13.626;2022-12-07T12:00:05;6.60;99.90
40291;DHT22;26000;48.304;13.626;2022-12-07T12:02:42;6.50;99.90
40291;DHT22;26000;48.304;13.626;2022-12-07T12:05:18;6.50;99.90
40291;DHT22;26000;48.304;13.626;2022-12-07T12:07:46;6.50;99.90
40291;DHT22;26000;48.304;13.626;2022-12-07T12:10:21;6.40;99.90
40291;DHT22;26000;48.304;13.626;2022-12-07T12:15:57;6.60;99.90
40291;DHT22;26000;48.304;13.626;2022-12-07T12:21:26;6.60;99.90
40291;DHT22;26000;48.304;13.626;2022-12-07T12:24:00;6.60;99.90
40291;DHT22;26000;48.304;13.626;2022-12-07T12:26:31;6.50;99.90
40291;DHT22;26000;48.304;13.626;2022-12-07T12:29:02;6.50;99.90
40291;DHT22;26000;48.304;13.626;2022-12-07T12:33:55;6.50;99.90
40291;DHT22;26000;48.304;13.626;2022-12-07T12:39:11;6.40;99.90
40291;DHT22;26000;48.304;13.626;2022-12-07T12:46:58;6.50;99.90
40291;DHT22;26000;48.304;13.626;2022-12-07T12:52:01;6.50;99.90
40291;DHT22;26000;48.304;13.626;2022-12-07T12:54:35;6.50;99.90
40291;DHT22;26000;48.304;13.626;2022-12-07T13:02:25;6.60;99.90
40291;DHT22;26000;48.304;13.626;2022-12-07T13:21:38;6.50;99.90
40291;DHT22;26000;48.304;13.626;2022-12-07T13:26:17;6.60;99.90
40291;DHT22;26000;48.304;13.626;2022-12-07T13:28:54;6.60;99.90
40291;DHT22;26000;48.304;13.626;2022-12-07T13:31:42;6.50;99.90
40291;DHT22;26000;48.304;13.626;2022-12-07T13:34:33;6.50;99.90
40291;DHT22;26000;48.304;13.626;2022-12-07T13:37:01;6.50;99.90
40291;DHT22;26000;48.304;13.626;2022-12-07T13:39:28;6.50;99.90
40291;DHT22;26000;48.304;13.626;2022-12-07T13:42:06;6.40;99.90
40291;DHT22;26000;48.304;13.626;2022-12-07T13:44:34;6.50;99.90
40291;DHT22;26000;48.304;13.626;2022-12-07T13:49:37;6.30;99.90
40291;DHT22;26000;48.304;13.626;2022-12-07T13:52:26;6.30;99.90
40291;DHT22;26000;48.304;13.626;2022-12-07T13:55:05;6.30;99.90
40291;DHT22;26000;48.304;13.626;2022-12-07T13:57:35;6.20;99.90
40291;DHT22;26000;48.304;13.626;2022-12-07T14:00:03;6.30;99.90
40291;DHT22;26000;48.304;13.626;2022-12-07T14:02:34;6.20;99.90
40291;DHT22;26000;48.304;13.626;2022-12-07T14:10:56;6.20;99.90
40291;DHT22;26000;48.304;13.626;2022-12-07T14:13:34;6.20;99.90
40291;DHT22;26000;48.304;13.626;2022-12-07T14:16:02;6.20;99.90
40291;DHT22;26000;48.304;13.626;2022-12-07T14:21:16;6.10;99.90
40291;DHT22;26000;48.304;13.626;2022-12-07T14:23:44;6.10;99.90
40291;DHT22;26000;48.304;13.626;2022-12-07T14:26:15;6.10;99.90
40291;DHT22;26000;48.304;13.626;2022-12-07T14:28:42;6.10;99.90
40291;DHT22;26000;48.304;13.626;2022-12-07T14:31:15;6.00;99.90
40291;DHT22;26000;48.304;13.626;2022-12-07T14:33:41;6.00;99.90
40291;DHT22;26000;48.304;13.626;2022-12-07T14:36:12;6.00;99.90
40291;DHT22;26000;48.304;13.626;2022-12-07T14:38:38;6.00;99.90
40291;DHT22;26000;48.304;13.626;2022-12-07T14:41:06;5.90;99.90
40291;DHT22;26000;48.304;13.626;2022-12-07T14:43:54;5.90;99.90
40291;DHT22;26000;48.304;13.626;2022-12-07T14:46:19;5.90;99.90
40291;DHT22;26000;48.304;13.626;2022-12-07T14:48:45;5.80;99.90
40291;DHT22;26000;48.304;13.626;2022-12-07T14:51:12;5.80;99.90
40291;DHT22;26000;48.304;13.626;2022-12-07T14:53:42;5.70;99.90
40291;DHT22;26000;48.304;13.626;2022-12-07T14:56:08;5.70;99.90
40291;DHT22;26000;48.304;13.626;2022-12-07T14:58:34;5.70;99.90
40291;DHT22;26000;48.304;13.626;2022-12-07T15:01:00;5.70;99.90
40291;DHT22;26000;48.304;13.626;2022-12-07T15:03:26;5.60;99.90
40291;DHT22;26000;48.304;13.626;2022-12-07T15:05:51;5.50;99.90
40291;DHT22;26000;48.304;13.626;2022-12-07T15:08:17;5.50;99.90
40291;DHT22;26000;48.304;13.626;2022-12-07T15:10:43;5.50;99.90
40291;DHT22;26000;48.304;13.626;2022-12-07T15:13:09;5.40;99.90
40291;DHT22;26000;48.304;13.626;2022-12-07T15:15:54;5.40;99.90
40291;DHT22;26000;48.304;13.626;2022-12-07T15:18:21;5.40;99.90
40291;DHT22;26000;48.304;13.626;2022-12-07T15:20:47;5.30;99.90
40291;DHT22;26000;48.304;13.626;2022-12-07T15:23:13;5.30;99.90
40291;DHT22;26000;48.304;13.626;2022-12-07T15:25:43;5.30;99.90
40291;DHT22;26000;48.304;13.626;2022-12-07T15:28:09;5.30;99.90
40291;DHT22;26000;48.304;13.626;2022-12-07T15:30:40;5.30;99.90
40291;DHT22;26000;48.304;13.626;2022-12-07T15:33:06;5.30;99.90
40291;DHT22;26000;48.304;13.626;2022-12-07T15:35:32;5.20;99.90
40291;DHT22;26000;48.304;13.626;2022-12-07T15:37:57;5.20;99.90
40291;DHT22;26000;48.304;13.626;2022-12-07T15:40:23;5.20;99.90
40291;DHT22;26000;48.304;13.626;2022-12-07T15:42:48;5.10;99.90
40291;DHT22;26000;48.304;13.626;2022-12-07T15:45:14;5.10;99.90
40291;DHT22;26000;48.304;13.626;2022-12-07T15:47:41;5.10;99.90
40291;DHT22;26000;48.304;13.626;2022-12-07T15:50:10;5.10;99.90
40291;DHT22;26000;48.304;13.626;2022-12-07T15:52:36;5.20;99.90
40291;DHT22;26000;48.304;13.626;2022-12-07T15:55:02;5.10;99.90
40291;DHT22;26000;48.304;13.626;2022-12-07T15:57:32;5.10;99.90
40291;DHT22;26000;48.304;13.626;2022-12-07T15:59:58;5.10;99.90
40291;DHT22;26000;48.304;13.626;2022-12-07T16:02:24;5.10;99.90
40291;DHT22;26000;48.304;13.626;2022-12-07T16:04:50;5.10;99.90
40291;DHT22;26000;48.304;13.626;2022-12-07T16:07:17;5.10;99.90
40291;DHT22;26000;48.304;13.626;2022-12-07T16:09:44;5.30;99.90
40291;DHT22;26000;48.304;13.626;2022-12-07T16:12:11;6.90;99.90
40291;DHT22;26000;48.304;13.626;2022-12-07T16:14:37;8.00;99.90
40291;DHT22;26000;48.304;13.626;2022-12-07T16:17:03;7.70;99.90
40291;DHT22;26000;48.304;13.626;2022-12-07T16:19:30;7.30;99.90
40291;DHT22;26000;48.304;13.626;2022-12-07T16:21:56;6.90;99.90
40291;DHT22;26000;48.304;13.626;2022-12-07T16:24:22;6.50;99.90
40291;DHT22;26000;48.304;13.626;2022-12-07T16:26:48;6.20;99.90
40291;DHT22;26000;48.304;13.626;2022-12-07T16:29:14;6.00;99.90
40291;DHT22;26000;48.304;13.626;2022-12-07T16:31:40;5.80;99.90
40291;DHT22;26000;48.304;13.626;2022-12-07T16:34:07;5.50;99.90
40291;DHT22;26000;48.304;13.626;2022-12-07T16:36:32;5.50;99.90
40291;DHT22;26000;48.304;13.626;2022-12-07T16:38:59;5.30;99.90
40291;DHT22;26000;48.304;13.626;2022-12-07T16:41:24;5.30;99.90
40291;DHT22;26000;48.304;13.626;2022-12-07T16:43:50;5.20;99.90
40291;DHT22;26000;48.304;13.626;2022-12-07T16:46:16;5.20;99.90
40291;DHT22;26000;48.304;13.626;2022-12-07T16:48:42;5.10;99.90
40291;DHT22;26000;48.304;13.626;2022-12-07T16:51:10;5.10;99.90
40291;DHT22;26000;48.304;13.626;2022-12-07T16:53:37;5.10;99.90
40291;DHT22;26000;48.304;13.626;2022-12-07T16:56:03;5.00;99.90
40291;DHT22;26000;48.304;13.626;2022-12-07T16:58:30;5.00;99.90
40291;DHT22;26000;48.304;13.626;2022-12-07T17:00:56;5.00;99.90
40291;DHT22;26000;48.304;13.626;2022-12-07T17:03:22;4.90;99.90
40291;DHT22;26000;48.304;13.626;2022-12-07T17:05:47;4.90;99.90
40291;DHT22;26000;48.304;13.626;2022-12-07T17:08:14;5.00;99.90
40291;DHT22;26000;48.304;13.626;2022-12-07T17:10:42;5.00;99.90
40291;DHT22;26000;48.304;13.626;2022-12-07T17:13:08;4.90;99.90
40291;DHT22;26000;48.304;13.626;2022-12-07T17:16:04;4.90;99.90
40291;DHT22;26000;48.304;13.626;2022-12-07T17:18:32;5.00;99.90
40291;DHT22;26000;48.304;13.626;2022-12-07T17:21:07;5.00;99.90
40291;DHT22;26000;48.304;13.626;2022-12-07T17:23:33;5.00;99.90
40291;DHT22;26000;48.304;13.626;2022-12-07T17:26:08;4.90;99.90
40291;DHT22;26000;48.304;13.626;2022-12-07T17:28:34;4.90;99.90
40291;DHT22;26000;48.304;13.626;2022-12-07T17:31:03;5.00;99.90
40291;DHT22;26000;48.304;13.626;2022-12-07T17:33:29;5.00;99.90
40291;DHT22;26000;48.304;13.626;2022-12-07T17:35:55;5.00;99.90